EmailTwitter


Observations de surface / Québec / CYUL (71627)

Régions: Québec | Canada | États-Unis | Europe | France | UK | Ailleurs
Station
Affichage
Infos & localisation pour CYUL (71627) | Aide pour décoder les METARs

Observations prises le 2018-01-20 à 06H00 UTC à MONTREAL INTL A, QB (CYUL)

Etat du ciel: couvert.

Température: -1.0 Celsius

Point de rosée: -5.0 Celsius

Humidité relative: 74%

Facteur vent: -7.

Vents: Sud-sud-est à 20 km/h ou 11 noeuds.

Pression au niveau moyen de la mer: 100.23 kilopascals.

Calage altimétrique: 100.20 kilopascals ou 29.59 pouces de mercure.

Visibilité horizontale: 15.00 milles terrestres ou 24.00 kilomètres.

Hauteur du plafond: 2286 mètres ( 7500 pieds ).

Observation METAR:

CYUL 200600Z 16011KT 15SM OVC075 M01/M05 A2959 RMK AC8 SLP023=